Time;durP1;ratioP1;P1;durP2;ratioP2;P2;SDS_P1;SDS_P2;PMS_P1;PMS_P2;Temp;Humidity;BMP_temperature;BMP_pressure;BME280_temperature;BME280_humidity;BME280_pressure;Samples;Min_cycle;Max_cycle;Signal;HPM_P1;HPM_P2
2021/04/12 00:02:05;;;;;;;2.90;2.70;;;;;;;4.10;100.00;98779.09;6115518;23;102917;-75
2021/04/12 00:04:40;;;;;;;3.00;2.80;;;;;;;4.21;100.00;98783.00;6115353;23;103137;-75
2021/04/12 00:07:13;;;;;;;3.60;3.30;;;;;;;3.97;100.00;98780.56;6115251;23;104962;-76
2021/04/12 00:09:47;;;;;;;3.23;2.93;;;;;;;4.02;99.89;98794.28;6114837;23;103069;-75
2021/04/12 00:12:20;;;;;;;3.20;3.00;;;;;;;4.08;100.00;98788.78;6088805;23;103035;-76
2021/04/12 00:14:51;;;;;;;3.60;3.33;;;;;;;3.92;100.00;98792.13;6115818;23;102820;-75
2021/04/12 00:17:28;;;;;;;3.90;3.60;;;;;;;3.80;100.00;98787.44;6112486;23;103946;-75
2021/04/12 00:19:59;;;;;;;3.67;3.10;;;;;;;4.04;100.00;98802.06;6114721;23;105242;-75
2021/04/12 00:22:32;;;;;;;4.00;3.57;;;;;;;3.85;100.00;98791.53;6088610;23;102898;-75
2021/04/12 00:25:05;;;;;;;3.83;3.43;;;;;;;3.87;100.00;98800.19;6115136;23;102826;-75
2021/04/12 00:27:35;;;;;;;3.33;3.13;;;;;;;3.97;100.00;98800.63;6114606;23;104447;-75
2021/04/12 00:30:09;;;;;;;4.00;3.70;;;;;;;3.77;100.00;98806.72;6113679;23;104986;-76
2021/04/12 00:32:40;;;;;;;4.00;3.70;;;;;;;3.71;100.00;98809.59;6114456;23;102927;-75
2021/04/12 00:35:13;;;;;;;4.23;3.83;;;;;;;3.85;100.00;98816.81;6088744;23;103205;-75
2021/04/12 00:37:46;;;;;;;4.10;3.80;;;;;;;3.72;100.00;98811.31;6114436;23;103004;-75
2021/04/12 00:40:27;;;;;;;3.60;3.30;;;;;;;3.69;99.17;98832.34;6087666;23;103587;-75
2021/04/12 00:43:18;;;;;;;3.87;3.57;;;;;;;3.69;100.00;98850.63;6112514;23;102905;-75
2021/04/12 00:46:16;;;;;;;4.10;3.80;;;;;;;3.94;100.00;98861.72;6087792;23;103114;-75
2021/04/12 00:49:22;;;;;;;4.10;3.80;;;;;;;4.05;100.00;98862.13;6086573;23;105265;-75
2021/04/12 00:51:56;;;;;;;3.87;3.57;;;;;;;3.95;98.91;98870.44;6060534;23;106004;-75
2021/04/12 00:54:51;;;;;;;3.93;3.63;;;;;;;3.73;100.00;98875.72;6115437;23;102899;-75
2021/04/12 00:57:42;;;;;;;4.63;4.27;;;;;;;3.79;99.81;98875.44;6085831;23;103010;-75
2021/04/12 01:00:12;;;;;;;4.57;4.17;;;;;;;3.76;100.00;98891.25;6113366;23;103808;-75
2021/04/12 01:02:55;;;;;;;4.50;4.20;;;;;;;3.59;100.00;98891.13;6112128;23;104362;-75
2021/04/12 01:05:37;;;;;;;4.50;4.10;;;;;;;3.58;100.00;98893.78;6114069;23;102778;-75
2021/04/12 01:08:37;;;;;;;4.47;3.90;;;;;;;3.52;100.00;98892.28;6087799;23;102645;-75
2021/04/12 01:11:44;;;;;;;4.87;4.27;;;;;;;3.36;100.00;98899.91;6112119;23;103667;-75
2021/04/12 01:14:32;;;;;;;4.63;4.23;;;;;;;3.21;100.00;98910.94;6087126;23;106351;-75
2021/04/12 01:17:12;;;;;;;5.00;4.60;;;;;;;3.25;100.00;98919.50;6087426;23;102608;-75
2021/04/12 01:20:11;;;;;;;4.93;4.43;;;;;;;3.56;100.00;98914.75;6087718;23;102851;-75
2021/04/12 01:23:21;;;;;;;5.43;4.97;;;;;;;3.39;100.00;98922.44;6063945;23;104883;-75
2021/04/12 01:26:24;;;;;;;4.73;4.33;;;;;;;3.62;100.00;98914.50;6113365;23;104746;-75
2021/04/12 01:29:23;;;;;;;4.77;4.30;;;;;;;3.35;100.00;98910.38;6075847;23;103650;-75
2021/04/12 01:32:35;;;;;;;4.87;4.47;;;;;;;3.45;100.00;98915.16;6114209;23;102688;-75
2021/04/12 01:35:35;;;;;;;4.70;4.30;;;;;;;3.65;100.00;98930.03;6112711;23;103663;-75
2021/04/12 01:38:26;;;;;;;5.37;4.97;;;;;;;3.73;100.00;98935.84;6113912;23;103737;-75
2021/04/12 01:41:11;;;;;;;4.87;4.47;;;;;;;3.46;100.00;98940.41;6112229;23;103023;-75
2021/04/12 01:44:18;;;;;;;5.20;4.70;;;;;;;3.47;100.00;98936.88;6113596;23;103260;-75
2021/04/12 01:46:59;;;;;;;5.20;4.70;;;;;;;3.72;100.00;98936.72;6113511;23;103895;-75
2021/04/12 01:49:43;;;;;;;5.17;4.77;;;;;;;3.39;100.00;98943.31;6112878;23;103651;-75
2021/04/12 01:52:49;;;;;;;5.23;4.73;;;;;;;3.40;100.00;98942.38;6113808;23;103038;-75
2021/04/12 01:55:36;;;;;;;5.30;4.90;;;;;;;3.53;100.00;98956.69;6099805;23;102825;-75
2021/04/12 01:58:15;;;;;;;5.60;5.10;;;;;;;3.19;100.00;98948.47;6112946;23;103810;-75
2021/04/12 02:00:55;;;;;;;5.23;4.73;;;;;;;3.48;100.00;98953.41;6111597;23;103201;-75
2021/04/12 02:03:47;;;;;;;5.37;4.87;;;;;;;3.60;100.00;98958.13;6114592;23;102906;-75
2021/04/12 02:06:36;;;;;;;5.67;5.17;;;;;;;3.37;100.00;98971.25;6085755;23;102952;-75
2021/04/12 02:09:16;;;;;;;5.33;4.87;;;;;;;3.45;100.00;98974.44;6095636;23;103801;-75
2021/04/12 02:11:53;;;;;;;4.87;4.47;;;;;;;3.45;100.00;98977.03;6114204;23;103217;-75
2021/04/12 02:14:40;;;;;;;5.17;4.77;;;;;;;3.46;100.00;98997.00;6115194;23;102908;-75
2021/04/12 02:17:17;;;;;;;5.83;5.27;;;;;;;3.64;100.00;99003.28;6114722;23;102899;-75
2021/04/12 02:20:13;;;;;;;5.60;5.10;;;;;;;3.60;100.00;99015.59;6114620;23;103940;-75
2021/04/12 02:23:08;;;;;;;5.70;5.10;;;;;;;3.46;100.00;99010.06;6113527;23;104659;-75
2021/04/12 02:25:44;;;;;;;5.43;5.00;;;;;;;3.49;99.29;99002.13;6114804;23;102815;-75
2021/04/12 02:28:33;;;;;;;5.83;5.30;;;;;;;3.52;99.85;98999.38;6115330;23;102766;-75
2021/04/12 02:31:21;;;;;;;5.80;5.20;;;;;;;3.51;99.80;99010.72;6114055;23;103795;-75
2021/04/12 02:33:59;;;;;;;6.00;5.50;;;;;;;3.63;99.42;99015.50;6113826;23;103689;-75
2021/04/12 02:36:38;;;;;;;5.83;5.33;;;;;;;3.39;99.69;99013.84;6113275;23;102508;-75
2021/04/12 02:39:23;;;;;;;6.17;5.50;;;;;;;3.46;100.00;99023.13;6114077;23;102961;-75
2021/04/12 02:42:06;;;;;;;6.23;5.63;;;;;;;3.23;100.00;99031.00;6113718;23;103812;-75
2021/04/12 02:44:48;;;;;;;5.90;5.40;;;;;;;3.57;100.00;99020.94;6112705;23;106146;-75
2021/04/12 02:47:48;;;;;;;5.97;5.47;;;;;;;3.41;99.59;99027.69;6114861;23;102475;-75
2021/04/12 02:50:32;;;;;;;5.63;4.97;;;;;;;3.51;100.00;99032.50;6054369;23;102831;-75
2021/04/12 02:53:10;;;;;;;6.13;5.57;;;;;;;3.33;99.93;99040.19;6114746;23;103759;-75
2021/04/12 02:56:08;;;;;;;6.17;5.57;;;;;;;3.55;100.00;99040.22;6114988;23;104791;-75
2021/04/12 02:59:01;;;;;;;6.50;5.80;;;;;;;3.36;99.97;99043.53;6114233;23;102912;-75
2021/04/12 03:01:52;;;;;;;5.97;5.40;;;;;;;3.24;100.00;99043.13;6104306;23;102665;-75
2021/04/12 03:04:36;;;;;;;6.60;6.00;;;;;;;3.30;100.00;99037.69;6061432;23;105877;-75
2021/04/12 03:07:52;;;;;;;5.93;5.43;;;;;;;3.55;99.93;99040.22;6113657;23;102822;-75
2021/04/12 03:10:52;;;;;;;5.90;5.30;;;;;;;3.27;100.00;99040.41;6087439;23;102798;-75
2021/04/12 03:13:51;;;;;;;5.60;5.10;;;;;;;3.47;100.00;99050.97;6114722;23;103411;-75
2021/04/12 03:16:40;;;;;;;6.20;5.60;;;;;;;3.59;99.95;99065.31;6114006;23;105012;-75
2021/04/12 03:19:27;;;;;;;5.30;4.80;;;;;;;3.63;98.24;99077.34;6109757;23;103842;-75
2021/04/12 03:22:30;;;;;;;6.40;5.23;;;;;;;3.44;99.27;99085.03;6087475;23;103086;-75
2021/04/12 03:25:27;;;;;;;5.93;5.30;;;;;;;3.64;99.88;99084.28;6114740;23;102558;-75
2021/04/12 03:28:21;;;;;;;5.67;5.00;;;;;;;3.48;99.62;99089.25;6114283;23;104956;-74
2021/04/12 03:31:24;;;;;;;5.60;4.97;;;;;;;3.51;99.10;99095.19;6112501;23;104606;-74
2021/04/12 03:34:13;;;;;;;5.13;4.63;;;;;;;3.67;98.80;99087.63;6104847;23;102906;-73
2021/04/12 03:37:03;;;;;;;5.33;4.83;;;;;;;3.21;99.82;99087.63;6112967;23;102582;-74
2021/04/12 03:39:45;;;;;;;5.63;5.13;;;;;;;3.28;100.00;99082.16;6086946;23;103663;-74
2021/04/12 03:42:26;;;;;;;6.00;5.43;;;;;;;3.46;100.00;99072.75;6113824;23;103626;-74
2021/04/12 03:45:12;;;;;;;6.07;5.47;;;;;;;3.33;99.08;99090.66;6113185;23;102448;-74
2021/04/12 03:48:02;;;;;;;6.50;5.73;;;;;;;3.45;99.07;99090.19;6114453;23;103071;-74
2021/04/12 03:51:02;;;;;;;6.03;5.40;;;;;;;3.40;99.03;99104.34;6114241;23;105181;-76
2021/04/12 03:54:04;;;;;;;6.37;5.50;;;;;;;3.05;98.85;99105.63;6089307;23;103169;-76
2021/04/12 03:56:53;;;;;;;6.30;5.27;;;;;;;3.47;98.94;99108.44;6126526;23;103325;-76
2021/04/12 03:59:38;;;;;;;6.40;5.80;;;;;;;3.21;98.71;99116.38;6092416;23;102931;-76
2021/04/12 04:02:26;;;;;;;6.17;5.57;;;;;;;3.15;99.21;99121.81;6112096;23;103735;-76
2021/04/12 04:05:26;;;;;;;6.40;5.50;;;;;;;3.34;99.81;99133.31;6114677;23;104720;-76
2021/04/12 04:08:24;;;;;;;7.67;6.97;;;;;;;3.60;98.76;99138.41;6113357;23;102839;-76
2021/04/12 04:11:30;;;;;;;7.13;6.43;;;;;;;3.41;98.93;99151.31;6113931;23;103124;-76
2021/04/12 04:14:27;;;;;;;7.33;6.63;;;;;;;3.58;98.43;99148.06;6087916;23;103790;-76
2021/04/12 04:17:13;;;;;;;7.67;6.87;;;;;;;3.48;97.79;99159.78;6113244;23;103806;-76
2021/04/12 04:19:58;;;;;;;7.23;6.53;;;;;;;3.42;99.45;99167.84;6114663;23;102795;-76
2021/04/12 04:22:42;;;;;;;8.27;7.33;;;;;;;3.46;100.00;99172.03;6115453;23;103008;-76
2021/04/12 04:25:26;;;;;;;8.77;8.07;;;;;;;3.24;100.00;99168.47;6114302;23;103788;-76
2021/04/12 04:28:21;;;;;;;8.53;7.73;;;;;;;3.37;100.00;99169.75;6113856;23;103627;-76
2021/04/12 04:31:37;;;;;;;8.13;7.33;;;;;;;3.51;99.71;99167.47;6073660;23;102852;-76
2021/04/12 04:34:29;;;;;;;9.40;8.43;;;;;;;3.47;99.44;99171.13;5999080;23;103001;-77
2021/04/12 04:37:11;;;;;;;8.70;7.90;;;;;;;3.32;99.63;99169.91;6081770;23;106296;-79
2021/04/12 04:40:05;;;;;;;8.90;8.00;;;;;;;3.59;99.22;99173.31;6116323;23;103594;-78
2021/04/12 04:42:53;;;;;;;8.23;7.53;;;;;;;3.60;98.71;99188.06;6087686;23;102492;-77
2021/04/12 04:45:30;;;;;;;8.63;7.77;;;;;;;3.43;99.42;99198.25;6116661;23;103234;-79
2021/04/12 04:48:25;;;;;;;8.07;6.30;;;;;;;3.44;100.00;99205.19;6115627;23;105292;-80
2021/04/12 04:51:23;;;;;;;6.87;6.27;;;;;;;3.35;100.00;99208.13;6095942;23;103183;-81
2021/04/12 04:54:15;;;;;;;6.40;5.80;;;;;;;3.19;98.87;99209.59;6106544;23;103124;-79
2021/04/12 04:56:57;;;;;;;6.33;5.73;;;;;;;3.26;100.00;99209.31;6124993;23;102924;-79
2021/04/12 04:59:38;;;;;;;7.07;5.97;;;;;;;3.42;99.68;99214.88;6106510;23;103763;-78
2021/04/12 05:02:30;;;;;;;6.40;5.80;;;;;;;3.41;98.95;99229.66;6064995;23;104970;-80
2021/04/12 05:05:24;;;;;;;6.93;6.30;;;;;;;3.47;98.28;99228.59;6096357;23;102553;-81
2021/04/12 05:08:31;;;;;;;5.63;5.13;;;;;;;3.60;98.14;99240.31;6116200;23;102985;-79
2021/04/12 05:11:31;;;;;;;6.53;5.93;;;;;;;3.58;98.36;99243.88;6115845;23;106018;-80
2021/04/12 05:14:14;;;;;;;6.77;6.17;;;;;;;3.33;97.37;99254.34;6053893;23;103142;-81
2021/04/12 05:17:03;;;;;;;6.30;5.70;;;;;;;3.12;99.64;99257.69;6127010;23;103025;-78
2021/04/12 05:19:58;;;;;;;7.07;6.37;;;;;;;3.06;98.22;99258.72;6114859;23;103561;-80
2021/04/12 05:22:56;;;;;;;7.60;6.80;;;;;;;2.93;99.54;99254.84;6112998;23;104331;-79
2021/04/12 05:25:52;;;;;;;8.57;7.77;;;;;;;2.77;100.00;99266.69;6112286;23;105013;-79
2021/04/12 05:28:33;;;;;;;7.97;7.17;;;;;;;2.91;100.00;99270.56;6109104;23;102872;-79
2021/04/12 05:31:25;;;;;;;8.50;7.70;;;;;;;2.95;99.53;99280.91;6112942;23;102956;-79
2021/04/12 05:34:18;;;;;;;7.20;6.50;;;;;;;3.22;99.82;99282.59;6112462;23;106577;-79
2021/04/12 05:36:59;;;;;;;8.00;7.30;;;;;;;3.17;97.94;99297.56;6112501;23;103657;-80
2021/04/12 05:39:38;;;;;;;8.97;8.07;;;;;;;3.29;97.72;99295.38;6112865;23;102965;-79
2021/04/12 05:42:24;;;;;;;9.00;8.10;;;;;;;3.21;97.33;99288.72;6114009;23;103059;-80
2021/04/12 05:45:11;;;;;;;9.73;8.73;;;;;;;3.19;97.62;99296.59;6102383;23;104048;-80
2021/04/12 05:48:01;;;;;;;7.90;7.07;;;;;;;3.12;100.00;99284.63;6075834;23;104344;-79
2021/04/12 05:51:11;;;;;;;9.90;8.83;;;;;;;3.08;100.00;99288.28;6090090;23;103010;-80
2021/04/12 05:53:53;;;;;;;8.17;7.37;;;;;;;3.21;99.64;99288.72;6045121;23;102815;-79
2021/04/12 05:56:38;;;;;;;10.57;9.43;;;;;;;3.45;99.10;99306.19;6113299;23;105021;-81
2021/04/12 05:59:19;;;;;;;11.33;9.17;;;;;;;3.63;100.00;99308.16;6113364;23;104794;-81
2021/04/12 06:02:18;;;;;;;9.23;8.43;;;;;;;3.77;98.74;99316.38;6114259;23;102900;-81
2021/04/12 06:04:59;;;;;;;9.27;8.37;;;;;;;3.81;98.85;99317.97;6079605;23;102569;-80
2021/04/12 06:07:46;;;;;;;9.73;8.77;;;;;;;3.84;99.88;99328.31;6112757;23;103685;-81
2021/04/12 06:11:00;;;;;;;12.70;11.50;;;;;;;3.91;98.92;99334.16;6088125;23;103760;-81
2021/04/12 06:13:48;;;;;;;10.17;9.17;;;;;;;3.80;98.01;99341.53;6024343;23;102932;-79
2021/04/12 06:16:32;;;;;;;10.47;9.47;;;;;;;3.81;97.15;99343.25;6022682;23;104484;-80
2021/04/12 06:19:29;;;;;;;10.23;9.23;;;;;;;3.74;97.68;99342.59;6094799;23;104545;-80
2021/04/12 06:22:10;;;;;;;9.83;8.80;;;;;;;3.87;96.93;99351.75;6109820;23;103724;-80
2021/04/12 06:25:09;;;;;;;10.47;6.77;;;;;;;4.06;96.53;99354.56;6107024;23;102909;-80
2021/04/12 06:28:00;;;;;;;11.20;8.47;;;;;;;4.16;97.10;99353.28;6108608;23;103111;-80
2021/04/12 06:30:42;;;;;;;7.37;6.40;;;;;;;4.24;95.51;99358.28;6106629;23;103781;-80
2021/04/12 06:33:32;;;;;;;9.00;7.50;;;;;;;4.31;95.35;99362.34;6109563;23;105182;-81
2021/04/12 06:36:15;;;;;;;9.00;7.53;;;;;;;4.45;94.65;99375.78;6083475;23;102894;-80
2021/04/12 06:39:27;;;;;;;10.30;7.67;;;;;;;4.52;94.38;99374.66;6110166;23;103028;-80
2021/04/12 06:42:31;;;;;;;10.63;8.33;;;;;;;4.49;96.06;99380.00;5968400;23;104755;-82
2021/04/12 06:45:26;;;;;;;9.10;6.67;;;;;;;4.65;97.20;99383.75;6119981;23;105100;-78
2021/04/12 06:48:36;;;;;;;8.97;7.90;;;;;;;4.67;95.34;99389.78;6105154;23;103010;-79
2021/04/12 06:51:23;;;;;;;10.43;7.83;;;;;;;4.69;95.89;99394.03;6083828;23;102937;-79
2021/04/12 06:54:27;;;;;;;9.37;7.70;;;;;;;4.64;95.69;99410.81;6108730;23;103721;-79
2021/04/12 06:57:34;;;;;;;9.53;8.33;;;;;;;4.69;94.71;99407.13;6028290;23;103601;-79
2021/04/12 07:00:38;;;;;;;9.47;8.57;;;;;;;4.56;94.55;99412.88;6107047;23;103031;-79
2021/04/12 07:03:50;;;;;;;9.27;7.37;;;;;;;4.57;94.46;99410.22;6112141;23;102548;-79
2021/04/12 07:06:43;;;;;;;10.97;9.87;;;;;;;4.49;95.47;99411.41;6111217;23;103070;-79
2021/04/12 07:09:39;;;;;;;10.20;8.53;;;;;;;4.32;96.45;99412.03;6111433;23;104709;-80
2021/04/12 07:13:00;;;;;;;9.60;8.07;;;;;;;4.49;94.67;99417.47;6111246;23;103170;-80
2021/04/12 07:15:58;;;;;;;12.80;8.33;;;;;;;4.56;95.20;99423.34;6086124;23;102698;-80
2021/04/12 07:19:09;;;;;;;9.57;8.63;;;;;;;4.52;95.06;99433.06;6083953;23;103738;-80
2021/04/12 07:22:00;;;;;;;10.03;9.00;;;;;;;4.63;95.19;99430.91;6111188;23;103306;-79
2021/04/12 07:24:56;;;;;;;11.20;8.97;;;;;;;4.67;94.45;99436.88;6110122;23;102939;-80
2021/04/12 07:27:55;;;;;;;11.70;10.50;;;;;;;4.61;94.46;99437.13;6111697;23;102912;-79
2021/04/12 07:30:55;;;;;;;12.30;10.10;;;;;;;4.71;94.18;99437.63;6110347;23;103961;-79
2021/04/12 07:33:38;;;;;;;9.80;8.20;;;;;;;4.57;94.67;99440.78;6085244;23;103117;-80
2021/04/12 07:36:39;;;;;;;10.57;9.47;;;;;;;4.59;93.15;99441.56;6111373;23;102982;-80
2021/04/12 07:40:14;;;;;;;11.27;10.13;;;;;;;4.83;94.58;99448.50;6085271;23;103178;-80
2021/04/12 07:43:34;;;;;;;12.43;10.00;;;;;;;4.97;94.50;99461.94;6085033;23;103885;-80
2021/04/12 07:46:35;;;;;;;13.07;10.70;;;;;;;4.83;93.69;99460.75;6109366;23;104814;-80
2021/04/12 07:49:57;;;;;;;13.07;11.63;;;;;;;4.75;94.15;99466.25;6084098;23;102874;-79
2021/04/12 07:53:09;;;;;;;13.47;11.03;;;;;;;4.79;93.24;99473.09;6120392;23;102945;-79
2021/04/12 07:56:12;;;;;;;11.83;10.17;;;;;;;4.80;91.75;99473.97;5965103;23;103383;-80
2021/04/12 07:59:31;;;;;;;12.17;10.80;;;;;;;4.73;92.42;99489.03;5963260;23;103172;-77
2021/04/12 08:02:37;;;;;;;13.63;12.23;;;;;;;4.85;90.95;99498.22;6112961;23;102894;-77
2021/04/12 08:05:40;;;;;;;12.60;11.10;;;;;;;4.86;90.79;99500.75;6111444;23;104871;-77
2021/04/12 08:08:27;;;;;;;12.93;11.10;;;;;;;5.04;92.14;99497.47;6110242;23;112708;-77
2021/04/12 08:11:44;;;;;;;13.17;11.40;;;;;;;5.12;91.73;99502.41;6111538;23;103788;-77
2021/04/12 08:14:44;;;;;;;17.73;11.67;;;;;;;5.26;90.68;99498.34;6109382;23;102500;-77
2021/04/12 08:17:40;;;;;;;13.33;11.47;;;;;;;5.10;89.48;99499.88;6112559;23;102915;-77
2021/04/12 08:21:04;;;;;;;14.43;11.13;;;;;;;5.02;89.47;99501.06;6110940;23;103665;-77
2021/04/12 08:24:07;;;;;;;13.57;12.27;;;;;;;5.20;89.12;99506.44;6112842;23;103252;-78
2021/04/12 08:27:13;;;;;;;13.37;11.97;;;;;;;5.28;88.54;99520.09;6109945;23;102814;-78
2021/04/12 08:30:17;;;;;;;14.20;11.50;;;;;;;5.37;89.00;99507.56;6110306;23;102903;-78
2021/04/12 08:33:32;;;;;;;13.57;11.93;;;;;;;5.83;89.15;99515.34;6110148;23;105270;-78
2021/04/12 08:36:50;;;;;;;13.13;11.73;;;;;;;5.21;87.90;99518.66;6087785;23;104447;-77
2021/04/12 08:39:50;;;;;;;13.33;11.70;;;;;;;5.36;88.89;99511.94;6111425;23;102737;-77
2021/04/12 08:42:56;;;;;;;12.67;11.23;;;;;;;5.10;86.24;99509.47;6111376;23;102882;-77
2021/04/12 08:46:03;;;;;;;12.70;11.40;;;;;;;4.92;88.49;99524.09;6046660;23;105347;-77
2021/04/12 08:49:00;;;;;;;11.90;10.50;;;;;;;5.33;87.26;99521.72;6103707;23;103235;-77
2021/04/12 08:52:06;;;;;;;11.57;10.37;;;;;;;5.53;85.37;99527.03;6101665;23;103029;-77
2021/04/12 08:55:08;;;;;;;11.90;10.70;;;;;;;5.50;83.73;99529.78;6025625;23;103228;-77
2021/04/12 09:09:22;;;;;;;11.40;10.30;;;;;;;5.58;83.89;99546.06;6062236;22;104123;-88
2021/04/12 09:12:36;;;;;;;13.30;11.50;;;;;;;5.76;84.57;99548.81;6098644;23;104683;-87
2021/04/12 09:15:40;;;;;;;12.07;10.97;;;;;;;5.62;85.74;99545.88;6078365;23;105950;-78
2021/04/12 09:18:56;;;;;;;12.60;10.63;;;;;;;5.34;83.75;99547.84;6098635;23;103104;-80
2021/04/12 09:22:13;;;;;;;11.80;10.70;;;;;;;5.34;85.51;99554.84;6106102;23;104345;-75
2021/04/12 09:25:03;;;;;;;11.90;10.17;;;;;;;5.97;82.90;99562.03;6105469;23;105622;-82
2021/04/12 09:27:59;;;;;;;11.57;10.30;;;;;;;5.97;79.44;99562.88;6107647;23;103701;-77
2021/04/12 09:31:02;;;;;;;11.37;9.03;;;;;;;5.35;79.16;99561.81;6103478;23;103021;-76
2021/04/12 09:34:04;;;;;;;9.57;8.60;;;;;;;5.97;78.69;99562.88;6063193;23;102990;-79
2021/04/12 09:36:49;;;;;;;9.03;8.23;;;;;;;6.18;77.36;99567.25;6081701;23;105948;-77
2021/04/12 09:39:57;;;;;;;9.63;8.60;;;;;;;6.45;77.72;99574.91;6109463;23;103580;-76
2021/04/12 09:42:51;;;;;;;9.17;8.17;;;;;;;6.27;78.81;99572.13;6052839;23;103030;-76
2021/04/12 09:45:51;;;;;;;9.27;7.80;;;;;;;6.16;75.86;99574.34;6084729;23;102981;-77
2021/04/12 09:48:48;;;;;;;8.20;6.57;;;;;;;6.47;77.95;99573.94;6107624;23;104630;-76
2021/04/12 09:51:51;;;;;;;7.10;6.47;;;;;;;6.90;76.40;99565.94;6111083;23;104157;-75
2021/04/12 09:54:50;;;;;;;8.03;7.23;;;;;;;6.57;75.52;99574.41;6110686;23;102853;-76
2021/04/12 09:57:54;;;;;;;8.03;7.17;;;;;;;6.82;73.15;99582.94;6110403;23;103164;-75
2021/04/12 10:00:37;;;;;;;6.30;5.70;;;;;;;6.12;72.77;99588.47;6047696;23;104593;-75
2021/04/12 10:03:40;;;;;;;5.90;5.40;;;;;;;6.26;71.96;99588.78;6108333;23;103521;-76
2021/04/12 10:06:59;;;;;;;6.43;5.83;;;;;;;6.20;72.76;99596.91;6083969;23;102952;-79
2021/04/12 10:09:47;;;;;;;6.80;6.13;;;;;;;6.70;72.69;99592.19;6085783;23;103109;-79
2021/04/12 10:12:30;;;;;;;5.40;4.63;;;;;;;7.15;70.97;99593.75;6083660;23;105850;-75
2021/04/12 10:15:05;;;;;;;8.30;5.13;;;;;;;7.18;71.46;99597.09;6104615;23;105634;-79
2021/04/12 10:17:42;;;;;;;5.20;4.77;;;;;;;7.17;71.45;99600.63;6109084;23;102991;-77
2021/04/12 10:20:15;;;;;;;5.50;4.90;;;;;;;7.17;71.51;99599.78;6105742;23;103339;-75
2021/04/12 10:22:56;;;;;;;6.23;5.30;;;;;;;7.58;68.24;99604.88;6105386;23;104137;-73
2021/04/12 10:25:32;;;;;;;5.57;5.07;;;;;;;7.29;69.09;99602.72;6106647;23;103647;-76
2021/04/12 10:28:12;;;;;;;6.60;5.37;;;;;;;7.43;67.44;99595.06;6106152;23;102802;-78
2021/04/12 10:30:44;;;;;;;5.60;5.00;;;;;;;7.16;67.04;99598.91;6104407;23;103079;-76
2021/04/12 10:33:17;;;;;;;5.37;4.70;;;;;;;7.42;69.89;99595.97;6077031;23;105505;-75
2021/04/12 10:35:53;;;;;;;7.87;4.33;;;;;;;7.53;69.19;99598.09;6104328;23;103123;-77
2021/04/12 10:38:26;;;;;;;6.63;4.73;;;;;;;7.34;67.29;99597.25;6108734;23;102946;-76
2021/04/12 10:41:05;;;;;;;7.40;4.80;;;;;;;6.90;68.86;99604.47;6109110;23;102925;-77
2021/04/12 10:43:59;;;;;;;5.27;4.77;;;;;;;7.66;65.69;99596.66;6108728;23;103803;-77
2021/04/12 10:46:32;;;;;;;5.10;3.87;;;;;;;7.32;64.75;99602.59;6057556;23;105565;-79
2021/04/12 10:49:09;;;;;;;4.90;4.33;;;;;;;7.36;63.38;99598.88;6081827;23;103103;-76
2021/04/12 10:51:47;;;;;;;19.33;7.47;;;;;;;7.83;64.95;99599.31;6082488;23;102818;-76
2021/04/12 10:55:04;;;;;;;7.30;4.60;;;;;;;8.30;61.70;99599.72;6107131;23;105125;-76
2021/04/12 10:58:00;;;;;;;3.27;2.97;;;;;;;8.50;61.50;99586.44;5986789;23;103769;-76
2021/04/12 11:00:45;;;;;;;3.33;3.00;;;;;;;8.05;58.64;99584.25;5987880;23;102746;-75
2021/04/12 11:03:24;;;;;;;4.87;3.63;;;;;;;8.16;59.75;99586.34;6094591;23;102836;-77
2021/04/12 11:06:18;;;;;;;3.37;3.07;;;;;;;7.89;62.06;99590.28;6108295;23;103947;-75
2021/04/12 11:08:49;;;;;;;3.30;2.60;;;;;;;8.47;58.54;99589.22;6106935;23;103695;-78
2021/04/12 11:11:22;;;;;;;3.40;2.67;;;;;;;8.71;59.26;99601.13;6081587;23;103081;-81
2021/04/12 11:13:54;;;;;;;4.57;3.30;;;;;;;8.83;60.17;99593.53;6109154;23;103054;-82
2021/04/12 11:16:32;;;;;;;4.20;3.80;;;;;;;8.83;59.25;99598.81;6108862;23;103300;-82
2021/04/12 11:19:12;;;;;;;6.27;2.83;;;;;;;8.48;57.39;99604.06;6081257;23;103137;-78
2021/04/12 11:21:43;;;;;;;4.07;2.93;;;;;;;9.03;58.50;99604.78;6106166;23;102889;-80
2021/04/12 11:24:20;;;;;;;3.37;2.63;;;;;;;8.95;55.88;99603.47;6106381;23;103012;-80
2021/04/12 11:27:29;;;;;;;3.43;2.30;;;;;;;9.15;55.57;99585.66;6108269;23;104487;-78
2021/04/12 11:30:06;;;;;;;4.43;2.27;;;;;;;8.73;54.14;99595.78;5996873;23;105051;-81
2021/04/12 11:32:45;;;;;;;4.07;2.33;;;;;;;8.82;54.17;99597.09;6082541;23;102986;-78
2021/04/12 11:35:19;;;;;;;2.77;2.43;;;;;;;8.80;55.77;99593.69;6107769;23;103613;-81
2021/04/12 11:37:58;;;;;;;2.40;1.93;;;;;;;8.77;57.15;99599.13;6108707;23;104405;-80
2021/04/12 11:40:30;;;;;;;3.60;2.33;;;;;;;8.39;59.06;99601.91;6108486;23;103100;-81
2021/04/12 11:43:01;;;;;;;2.83;2.33;;;;;;;8.59;54.89;99607.00;6108686;23;102776;-78
2021/04/12 11:45:35;;;;;;;2.97;2.30;;;;;;;8.46;55.17;99605.94;6109198;23;103067;-83
2021/04/12 11:48:09;;;;;;;2.50;2.07;;;;;;;8.40;53.79;99600.97;6106846;23;104802;-79
2021/04/12 11:50:42;;;;;;;4.23;2.37;;;;;;;8.61;53.97;99599.91;6105740;23;103718;-80
2021/04/12 11:53:21;;;;;;;3.70;2.37;;;;;;;8.80;53.00;99599.81;6108370;23;103171;-79
2021/04/12 11:56:00;;;;;;;5.47;2.13;;;;;;;9.55;54.48;99594.94;6112042;23;102774;-80
2021/04/12 11:58:35;;;;;;;3.33;2.13;;;;;;;8.46;51.84;99600.66;6082989;23;106193;-80
2021/04/12 12:01:14;;;;;;;3.27;2.70;;;;;;;7.77;54.28;99604.03;6106473;23;105074;-79
2021/04/12 12:04:00;;;;;;;5.03;2.63;;;;;;;8.11;55.31;99599.72;6107070;23;103002;-79
2021/04/12 12:06:47;;;;;;;4.20;2.30;;;;;;;8.08;55.70;99604.28;6108669;23;103072;-79
2021/04/12 12:09:45;;;;;;;2.87;2.53;;;;;;;8.15;55.14;99605.69;6079936;23;104595;-78
2021/04/12 12:12:33;;;;;;;2.87;2.30;;;;;;;8.47;54.78;99601.53;6100577;23;102990;-80
2021/04/12 12:15:12;;;;;;;2.40;2.10;;;;;;;8.68;55.87;99609.19;6096895;23;102980;-81
2021/04/12 12:17:44;;;;;;;3.73;2.63;;;;;;;8.69;55.09;99612.69;6106281;23;102997;-81
2021/04/12 12:20:19;;;;;;;5.30;2.60;;;;;;;9.01;54.69;99600.53;6104482;23;104005;-80
2021/04/12 12:22:58;;;;;;;2.60;2.40;;;;;;;9.97;56.39;99597.00;6099092;23;108085;-81
2021/04/12 12:25:38;;;;;;;4.67;2.00;;;;;;;10.10;50.17;99595.41;6092608;23;103600;-83
2021/04/12 12:28:29;;;;;;;2.13;1.70;;;;;;;10.27;49.57;99595.31;6072757;23;103625;-83
2021/04/12 12:31:10;;;;;;;2.73;1.70;;;;;;;10.89;47.05;99596.94;6078663;23;103980;-80
2021/04/12 12:33:44;;;;;;;1.97;1.77;;;;;;;9.96;46.40;99594.47;6114330;22;103549;-79
2021/04/12 12:36:18;;;;;;;5.40;1.97;;;;;;;9.88;47.22;99608.06;6125387;22;103094;-79
2021/04/12 12:39:01;;;;;;;3.43;2.03;;;;;;;9.40;48.15;99603.69;6127991;22;103390;-79
2021/04/12 12:41:35;;;;;;;3.43;2.03;;;;;;;9.18;50.61;99605.75;6126395;22;103743;-81
2021/04/12 12:44:08;;;;;;;2.57;2.20;;;;;;;8.22;52.03;99601.84;6126203;22;104198;-80
2021/04/12 12:46:37;;;;;;;4.47;2.20;;;;;;;7.84;53.82;99615.97;6130519;22;102980;-81
2021/04/12 12:49:11;;;;;;;3.53;2.60;;;;;;;7.95;51.97;99616.31;6134561;22;103150;-88
2021/04/12 12:51:47;;;;;;;3.40;2.50;;;;;;;7.85;52.98;99615.03;6134735;22;103086;-80
2021/04/12 12:54:22;;;;;;;3.13;1.90;;;;;;;8.48;52.39;99621.63;6137277;22;105059;-84
2021/04/12 12:56:51;;;;;;;4.13;2.17;;;;;;;8.58;51.92;99615.88;6138256;22;102676;-79
2021/04/12 12:59:25;;;;;;;2.77;2.10;;;;;;;9.37;51.84;99611.78;6136303;22;103285;-82
2021/04/12 13:01:54;;;;;;;3.30;1.47;;;;;;;9.77;50.44;99605.16;6137666;22;104240;-82
2021/04/12 13:04:25;;;;;;;2.57;1.93;;;;;;;9.02;47.50;99612.75;6110613;22;103276;-79
2021/04/12 13:06:55;;;;;;;3.23;1.90;;;;;;;9.12;47.85;99601.63;6136826;22;103099;-82
2021/04/12 13:09:28;;;;;;;3.40;1.67;;;;;;;9.65;49.11;99609.38;6137937;22;103059;-85
2021/04/12 13:11:58;;;;;;;1.60;1.50;;;;;;;9.50;50.77;99618.09;6133330;22;106718;-80
2021/04/12 13:14:34;;;;;;;2.27;2.00;;;;;;;9.11;50.79;99617.56;6136937;22;104256;-83
2021/04/12 13:17:17;;;;;;;2.43;2.00;;;;;;;9.20;51.18;99617.06;6137427;22;102986;-83
2021/04/12 13:19:47;;;;;;;4.23;2.40;;;;;;;9.59;50.13;99614.97;6138801;22;103159;-79
2021/04/12 13:22:21;;;;;;;5.23;2.00;;;;;;;9.84;49.61;99617.97;6114745;22;104526;-81
2021/04/12 13:24:48;;;;;;;2.57;2.03;;;;;;;11.12;49.35;99616.72;6145954;22;103227;-83